Time;durP1;ratioP1;P1;durP2;ratioP2;P2;SDS_P1;SDS_P2;PMS_P1;PMS_P2;Temp;Humidity;BMP_temperature;BMP_pressure;BME280_temperature;BME280_humidity;BME280_pressure;Samples;Min_cycle;Max_cycle;Signal;HPM_P1;HPM_P2
2020/12/20 00:00:59;;;;;;;1.80;1.70;;;10.80;99.90;;;;;;4994074;28;20910;-80
2020/12/20 00:03:25;;;;;;;2.53;1.70;;;9.90;99.90;;;;;;4994275;28;20393;-80
2020/12/20 00:05:51;;;;;;;2.87;1.80;;;9.90;99.90;;;;;;4995345;28;20797;-80
2020/12/20 00:08:17;;;;;;;3.00;1.90;;;9.90;99.90;;;;;;5009096;28;20416;-80
2020/12/20 00:10:43;;;;;;;4.07;1.80;;;9.90;99.90;;;;;;4998019;28;20436;-80
2020/12/20 00:13:08;;;;;;;4.43;1.90;;;10.30;99.90;;;;;;5002805;28;20472;-79
2020/12/20 00:15:34;;;;;;;2.15;1.80;;;9.60;99.90;;;;;;5006142;28;20396;-79
2020/12/20 00:18:00;;;;;;;2.13;1.50;;;9.60;99.90;;;;;;4997569;28;20394;-79
2020/12/20 00:20:25;;;;;;;2.90;1.80;;;10.30;99.90;;;;;;5009358;28;20390;-79
2020/12/20 00:22:51;;;;;;;2.28;1.63;;;9.80;99.90;;;;;;5000050;28;20381;-79
2020/12/20 00:25:16;;;;;;;2.28;1.60;;;9.70;99.90;;;;;;5001559;28;20482;-79
2020/12/20 00:27:42;;;;;;;2.45;1.58;;;9.80;99.90;;;;;;5006866;28;20431;-80
2020/12/20 00:30:08;;;;;;;4.85;1.55;;;9.90;99.90;;;;;;4995836;28;20481;-79
2020/12/20 00:32:35;;;;;;;2.53;1.60;;;11.20;99.90;;;;;;4996417;28;20444;-79
2020/12/20 00:35:01;;;;;;;4.50;1.70;;;;;;;;;;5005099;28;20394;-78
2020/12/20 00:37:27;;;;;;;3.90;1.70;;;;;;;;;;4993647;28;20406;-80
2020/12/20 00:39:53;;;;;;;3.40;1.80;;;9.40;99.90;;;;;;4993488;28;20746;-79
2020/12/20 00:42:20;;;;;;;1.77;1.50;;;11.40;99.90;;;;;;5008478;28;20737;-79
2020/12/20 00:44:45;;;;;;;2.00;1.60;;;10.20;99.90;;;;;;4998949;28;20534;-78
2020/12/20 00:47:11;;;;;;;1.30;1.20;;;9.60;99.90;;;;;;5003223;28;20423;-78
2020/12/20 00:49:37;;;;;;;1.67;1.13;;;10.40;99.90;;;;;;4992978;28;20939;-79
2020/12/20 00:52:05;;;;;;;1.90;1.70;;;9.90;99.90;;;;;;5007084;28;20483;-79
2020/12/20 00:54:32;;;;;;;1.70;1.60;;;9.60;99.90;;;;;;4996430;28;20434;-79
2020/12/20 00:56:57;;;;;;;1.80;1.40;;;10.20;99.90;;;;;;5005715;28;20394;-79
2020/12/20 00:59:23;;;;;;;3.22;1.73;;;9.70;99.90;;;;;;5003021;28;20385;-79
2020/12/20 01:01:49;;;;;;;2.77;1.30;;;10.50;99.90;;;;;;4998624;28;20391;-80
2020/12/20 01:04:15;;;;;;;1.52;1.30;;;9.40;99.90;;;;;;5008295;28;20389;-79
2020/12/20 01:06:41;;;;;;;2.70;1.35;;;9.90;99.90;;;;;;4992841;28;20460;-79
2020/12/20 01:09:07;;;;;;;1.98;1.15;;;10.10;99.90;;;;;;4991231;28;20418;-79
2020/12/20 01:11:33;;;;;;;2.10;1.40;;;10.90;99.90;;;;;;4993170;28;20434;-79
2020/12/20 01:14:01;;;;;;;1.48;1.00;;;10.00;99.90;;;;;;5007574;28;20395;-79
2020/12/20 01:16:29;;;;;;;1.98;1.02;;;9.90;99.90;;;;;;4995684;28;20499;-80
2020/12/20 01:18:55;;;;;;;1.63;1.20;;;9.80;99.90;;;;;;5004800;28;20397;-80
2020/12/20 01:21:21;;;;;;;2.00;1.60;;;10.00;99.90;;;;;;5002445;28;20384;-79
2020/12/20 01:23:47;;;;;;;1.95;1.20;;;10.30;99.90;;;;;;4981262;28;20401;-79
2020/12/20 01:26:14;;;;;;;1.43;1.20;;;9.50;99.90;;;;;;5008237;28;20869;-79
2020/12/20 01:28:40;;;;;;;1.75;1.10;;;9.90;99.90;;;;;;4997424;28;20420;-79
2020/12/20 01:31:07;;;;;;;2.05;1.30;;;9.60;99.90;;;;;;5011129;28;20389;-78
2020/12/20 01:33:35;;;;;;;1.60;1.30;;;9.90;99.90;;;;;;5000661;28;20743;-80
2020/12/20 01:36:18;;;;;;;3.45;1.35;;;11.30;99.90;;;;;;5007972;28;20800;-80
2020/12/20 01:38:44;;;;;;;1.60;1.30;;;10.10;99.90;;;;;;5007064;28;20863;-80
2020/12/20 01:41:10;;;;;;;2.17;1.50;;;9.70;99.90;;;;;;5000423;28;20492;-80
2020/12/20 01:43:47;;;;;;;1.65;1.20;;;11.10;99.90;;;;;;4999996;28;20393;-80
2020/12/20 01:46:15;;;;;;;1.50;1.30;;;9.90;99.90;;;;;;4992305;28;20395;-80
2020/12/20 01:48:41;;;;;;;1.60;1.42;;;9.60;99.90;;;;;;5007312;28;20484;-80
2020/12/20 01:51:08;;;;;;;1.30;1.20;;;10.90;99.90;;;;;;4999735;28;20385;-79
2020/12/20 01:53:34;;;;;;;1.20;1.10;;;9.30;99.90;;;;;;5011571;28;20381;-80
2020/12/20 01:56:07;;;;;;;1.63;1.52;;;9.30;99.90;;;;;;5011877;28;20889;-80
2020/12/20 01:58:36;;;;;;;1.83;1.47;;;10.00;99.90;;;;;;5011971;28;20401;-80
2020/12/20 02:01:07;;;;;;;2.00;1.50;;;10.00;99.90;;;;;;5011981;28;20396;-80
2020/12/20 02:03:34;;;;;;;1.67;1.40;;;10.80;99.90;;;;;;5014699;28;20881;-80
2020/12/20 02:06:00;;;;;;;3.20;1.65;;;10.50;99.90;;;;;;5014816;28;20424;-80
2020/12/20 02:08:26;;;;;;;1.33;1.23;;;9.30;99.90;;;;;;5011555;28;20592;-80
2020/12/20 02:11:08;;;;;;;1.35;1.25;;;9.70;99.90;;;;;;5011893;28;20749;-80
2020/12/20 02:13:34;;;;;;;1.80;1.40;;;10.20;99.90;;;;;;5010544;28;20409;-80
2020/12/20 02:16:00;;;;;;;1.70;1.40;;;10.10;99.90;;;;;;5005802;28;21298;-80
2020/12/20 02:18:26;;;;;;;2.13;1.30;;;9.80;99.90;;;;;;5006761;28;20526;-80
2020/12/20 02:20:52;;;;;;;2.10;1.60;;;9.50;99.90;;;;;;4991506;28;20902;-80
2020/12/20 02:23:19;;;;;;;2.50;1.60;;;9.40;99.90;;;;;;5002252;28;20446;-80
2020/12/20 02:25:44;;;;;;;3.08;1.52;;;10.10;99.90;;;;;;4995749;28;20421;-82
2020/12/20 02:28:10;;;;;;;1.80;1.40;;;9.80;99.90;;;;;;5006802;28;20377;-80
2020/12/20 02:30:35;;;;;;;1.20;1.10;;;9.70;99.90;;;;;;4991367;28;21074;-80
2020/12/20 02:33:01;;;;;;;1.50;1.40;;;9.30;99.90;;;;;;4999986;28;20443;-78
2020/12/20 02:35:27;;;;;;;3.00;1.38;;;9.70;99.90;;;;;;4998112;28;20450;-78
2020/12/20 02:37:52;;;;;;;1.38;1.20;;;11.00;99.90;;;;;;5007040;28;20397;-78
2020/12/20 02:40:18;;;;;;;2.92;1.60;;;9.60;99.90;;;;;;4993888;28;20400;-79
2020/12/20 02:42:44;;;;;;;1.60;1.40;;;9.40;99.90;;;;;;5004797;28;20383;-78
2020/12/20 02:45:09;;;;;;;1.77;1.23;;;9.50;99.90;;;;;;5000222;28;20419;-80
2020/12/20 02:47:35;;;;;;;1.60;1.20;;;10.10;99.90;;;;;;4997824;28;20394;-78
2020/12/20 02:50:00;;;;;;;2.35;1.20;;;9.60;99.90;;;;;;5006046;28;20490;-78
2020/12/20 02:52:26;;;;;;;2.40;1.40;;;9.80;99.90;;;;;;4994076;28;21011;-78
2020/12/20 02:54:51;;;;;;;1.50;1.10;;;10.40;99.90;;;;;;5003506;28;20383;-79
2020/12/20 02:57:17;;;;;;;2.10;1.30;;;10.50;99.90;;;;;;5001201;28;20722;-78
2020/12/20 02:59:43;;;;;;;1.67;1.47;;;9.60;99.90;;;;;;4996355;28;20485;-79
2020/12/20 03:02:08;;;;;;;2.20;1.40;;;10.30;99.90;;;;;;5005534;28;20908;-79
2020/12/20 03:04:34;;;;;;;3.67;1.60;;;10.70;99.90;;;;;;4994438;28;20399;-79
2020/12/20 03:06:59;;;;;;;3.30;1.30;;;10.20;99.90;;;;;;5000802;28;20957;-79
2020/12/20 03:09:25;;;;;;;2.63;1.05;;;9.50;99.90;;;;;;5001884;28;20417;-79
2020/12/20 03:11:51;;;;;;;1.45;1.35;;;9.70;99.90;;;;;;4995423;28;20856;-79
2020/12/20 03:14:16;;;;;;;1.20;1.00;;;10.20;99.90;;;;;;5006234;28;20392;-79
2020/12/20 03:16:42;;;;;;;2.20;1.13;;;10.10;99.90;;;;;;4996938;28;20380;-80
2020/12/20 03:19:07;;;;;;;2.60;1.30;;;10.90;99.90;;;;;;4999733;28;20516;-79
2020/12/20 03:21:33;;;;;;;1.50;1.27;;;10.70;99.90;;;;;;5001885;28;20881;-79
2020/12/20 03:24:00;;;;;;;1.87;1.30;;;9.70;99.90;;;;;;4994258;28;20391;-79
2020/12/20 03:26:27;;;;;;;2.50;1.17;;;10.60;99.90;;;;;;5006612;28;20732;-79
2020/12/20 03:28:53;;;;;;;1.70;1.30;;;9.20;99.90;;;;;;4998567;28;20467;-79
2020/12/20 03:31:18;;;;;;;1.98;1.42;;;10.20;99.90;;;;;;5010236;28;20385;-79
2020/12/20 03:33:44;;;;;;;1.63;1.40;;;9.30;99.90;;;;;;5001102;28;20387;-80
2020/12/20 03:36:10;;;;;;;2.40;1.40;;;10.50;99.90;;;;;;5010769;28;20497;-79
2020/12/20 03:38:35;;;;;;;1.77;1.20;;;9.70;99.90;;;;;;5000279;28;20442;-80
2020/12/20 03:41:01;;;;;;;1.15;1.05;;;9.40;99.90;;;;;;5008286;28;20466;-81
2020/12/20 03:43:26;;;;;;;1.40;1.30;;;10.90;99.90;;;;;;5004173;28;20464;-80
2020/12/20 03:45:52;;;;;;;3.40;1.10;;;9.50;99.90;;;;;;5010110;28;20386;-80
2020/12/20 03:48:18;;;;;;;3.40;1.40;;;9.90;99.90;;;;;;5006749;28;20388;-80
2020/12/20 03:50:43;;;;;;;2.10;1.00;;;9.80;99.90;;;;;;4999387;28;20387;-80
2020/12/20 03:53:09;;;;;;;1.83;1.30;;;10.10;99.90;;;;;;5011072;28;20381;-80
2020/12/20 03:55:34;;;;;;;2.30;1.40;;;9.40;99.90;;;;;;5000946;28;20389;-80
2020/12/20 03:58:00;;;;;;;2.20;1.40;;;9.60;99.90;;;;;;5007677;28;20387;-80
2020/12/20 04:00:26;;;;;;;1.30;1.20;;;9.40;99.90;;;;;;5008478;28;20385;-80
2020/12/20 04:02:51;;;;;;;1.53;1.37;;;10.30;99.90;;;;;;4998816;28;20397;-80
2020/12/20 04:05:17;;;;;;;1.50;1.30;;;9.50;99.90;;;;;;5009867;28;20391;-79
2020/12/20 04:07:43;;;;;;;2.08;1.40;;;10.10;99.90;;;;;;5001287;28;20404;-80
2020/12/20 04:10:09;;;;;;;1.40;1.30;;;11.10;99.90;;;;;;5002989;28;20446;-80
2020/12/20 04:12:34;;;;;;;2.30;1.60;;;10.00;99.90;;;;;;5008433;28;20793;-80
2020/12/20 04:15:00;;;;;;;2.17;2.07;;;9.80;99.90;;;;;;4999206;28;20394;-80
2020/12/20 04:17:25;;;;;;;1.87;1.40;;;9.60;99.90;;;;;;5008750;28;20382;-79
2020/12/20 04:19:51;;;;;;;3.50;1.60;;;9.50;99.90;;;;;;5001359;28;20393;-80
2020/12/20 04:22:17;;;;;;;2.10;1.50;;;10.00;99.90;;;;;;5001669;28;20401;-79
2020/12/20 04:24:42;;;;;;;1.50;1.40;;;10.90;99.90;;;;;;5008827;28;20385;-79
2020/12/20 04:27:08;;;;;;;1.90;1.30;;;10.70;99.90;;;;;;4997434;28;20389;-80
2020/12/20 04:29:33;;;;;;;1.60;1.50;;;9.30;99.90;;;;;;5007905;28;20426;-80
2020/12/20 04:32:01;;;;;;;2.60;1.60;;;11.30;99.90;;;;;;5001048;28;20763;-80
2020/12/20 04:34:27;;;;;;;1.65;1.50;;;9.50;99.90;;;;;;5006238;28;20416;-80
2020/12/20 04:36:53;;;;;;;2.20;1.30;;;9.70;99.90;;;;;;4996890;28;20896;-80
2020/12/20 04:39:18;;;;;;;1.50;1.30;;;9.20;99.90;;;;;;5008961;28;20390;-80
2020/12/20 04:41:44;;;;;;;2.53;1.40;;;9.90;99.90;;;;;;5000445;28;20797;-79
2020/12/20 04:44:10;;;;;;;1.35;1.25;;;9.60;99.90;;;;;;5002234;28;20390;-80
2020/12/20 04:46:37;;;;;;;1.60;1.50;;;9.50;99.90;;;;;;5006530;28;20773;-80
2020/12/20 04:49:03;;;;;;;1.92;1.70;;;9.50;99.90;;;;;;4996586;28;20517;-80
2020/12/20 04:51:29;;;;;;;1.40;1.30;;;9.10;99.90;;;;;;5007195;28;20467;-80
2020/12/20 04:53:58;;;;;;;1.70;1.60;;;9.40;99.90;;;;;;5001886;28;20377;-80
2020/12/20 04:56:23;;;;;;;1.63;1.50;;;9.80;99.90;;;;;;4999796;28;20755;-80
2020/12/20 04:58:50;;;;;;;3.50;1.90;;;9.70;99.90;;;;;;5008727;28;20476;-80
2020/12/20 05:01:16;;;;;;;5.88;3.25;;;9.40;99.90;;;;;;4995520;28;20413;-79
2020/12/20 05:03:42;;;;;;;4.95;2.80;;;9.80;99.90;;;;;;5006427;28;20446;-80
2020/12/20 05:06:09;;;;;;;2.80;1.80;;;10.20;99.90;;;;;;5002414;28;21025;-80
2020/12/20 05:08:34;;;;;;;1.70;1.60;;;10.40;99.90;;;;;;4999194;28;20642;-80
2020/12/20 05:11:00;;;;;;;1.40;1.30;;;10.90;99.90;;;;;;5009154;28;20393;-80
2020/12/20 05:13:38;;;;;;;2.20;1.80;;;9.40;99.90;;;;;;4997260;28;20476;-79
2020/12/20 05:16:04;;;;;;;4.93;1.58;;;8.70;99.90;;;;;;5003201;28;20391;-80
2020/12/20 05:18:30;;;;;;;2.28;1.70;;;9.50;99.90;;;;;;5007294;28;20454;-80
2020/12/20 05:20:56;;;;;;;3.95;1.80;;;9.50;99.90;;;;;;4998627;28;20413;-79
2020/12/20 05:23:26;;;;;;;1.80;1.70;;;9.80;99.90;;;;;;5010766;28;20418;-80
2020/12/20 05:26:04;;;;;;;1.70;1.60;;;9.40;99.90;;;;;;5001678;28;20392;-79
2020/12/20 05:28:30;;;;;;;2.30;1.40;;;10.30;99.90;;;;;;4999309;28;20400;-79
2020/12/20 05:30:55;;;;;;;2.70;1.50;;;9.30;99.90;;;;;;5002639;28;20507;-80
2020/12/20 05:33:29;;;;;;;2.63;1.70;;;9.70;99.90;;;;;;5008277;28;20383;-81
2020/12/20 05:35:59;;;;;;;2.20;1.77;;;9.40;99.90;;;;;;5001438;28;20771;-80
2020/12/20 05:38:25;;;;;;;2.15;1.40;;;10.00;99.90;;;;;;4998535;28;20394;-79
2020/12/20 05:40:50;;;;;;;1.50;1.40;;;11.40;99.90;;;;;;5007889;28;20455;-79
2020/12/20 05:43:22;;;;;;;3.20;1.97;;;10.40;99.90;;;;;;4995601;28;20377;-78
2020/12/20 05:45:48;;;;;;;1.95;1.50;;;9.40;99.90;;;;;;5005172;28;20449;-79
2020/12/20 05:48:15;;;;;;;2.42;1.30;;;9.40;99.90;;;;;;5002259;28;20397;-79
2020/12/20 05:50:52;;;;;;;2.50;1.40;;;9.50;99.90;;;;;;4997806;28;20437;-79
2020/12/20 05:53:36;;;;;;;1.55;1.40;;;9.30;99.90;;;;;;5008433;28;20394;-79
2020/12/20 05:56:04;;;;;;;1.50;1.40;;;10.00;99.90;;;;;;5001590;28;20414;-79
2020/12/20 05:58:31;;;;;;;2.30;1.50;;;9.50;99.90;;;;;;4997289;28;20418;-81
2020/12/20 06:00:58;;;;;;;2.03;1.60;;;9.20;99.90;;;;;;5008696;28;20380;-81
2020/12/20 06:03:24;;;;;;;3.08;1.80;;;10.50;99.90;;;;;;4994554;28;20787;-80
2020/12/20 06:05:50;;;;;;;2.70;1.60;;;9.40;99.90;;;;;;5004451;28;20403;-79
2020/12/20 06:08:18;;;;;;;2.30;1.35;;;9.60;99.90;;;;;;5002927;28;20857;-79
2020/12/20 06:10:52;;;;;;;1.58;1.17;;;10.80;99.90;;;;;;4996379;28;20460;-79
2020/12/20 06:13:22;;;;;;;3.47;1.50;;;9.40;99.90;;;;;;5006289;28;20418;-78
2020/12/20 06:15:53;;;;;;;1.40;1.30;;;9.40;99.90;;;;;;4999857;28;20413;-79
2020/12/20 06:18:24;;;;;;;3.08;1.40;;;9.50;99.90;;;;;;4999149;28;20455;-80
2020/12/20 06:20:52;;;;;;;1.60;1.40;;;9.80;99.90;;;;;;5006280;28;20746;-80
2020/12/20 06:23:26;;;;;;;1.50;1.40;;;9.30;99.90;;;;;;4993902;28;20431;-79
2020/12/20 06:25:54;;;;;;;3.00;1.60;;;9.50;99.90;;;;;;5007680;28;20476;-80
2020/12/20 06:28:27;;;;;;;1.80;1.60;;;9.40;99.90;;;;;;5004681;28;20704;-80
2020/12/20 06:30:57;;;;;;;2.85;1.55;;;9.40;99.90;;;;;;5005493;28;20495;-81
2020/12/20 06:33:34;;;;;;;1.58;1.48;;;9.60;99.90;;;;;;5006295;28;20867;-80
2020/12/20 06:36:16;;;;;;;2.13;1.50;;;9.20;99.90;;;;;;5001304;28;20424;-80
2020/12/20 06:38:55;;;;;;;1.80;1.48;;;10.60;99.90;;;;;;4997323;28;20429;-79
2020/12/20 06:41:33;;;;;;;1.83;1.48;;;9.30;99.90;;;;;;4993610;28;20401;-79
2020/12/20 06:43:59;;;;;;;1.60;1.50;;;9.30;99.90;;;;;;5002466;28;20980;-80
2020/12/20 06:46:38;;;;;;;2.30;1.40;;;9.60;99.90;;;;;;5003952;28;20385;-79
2020/12/20 06:49:36;;;;;;;2.00;1.60;;;10.40;99.90;;;;;;4996366;28;20425;-80
2020/12/20 06:52:17;;;;;;;2.70;1.50;;;9.30;99.90;;;;;;5002106;28;20732;-80
2020/12/20 06:55:08;;;;;;;1.95;1.80;;;9.70;99.90;;;;;;5006809;28;20850;-80
2020/12/20 06:57:34;;;;;;;1.73;1.40;;;9.20;99.90;;;;;;4997048;28;20503;-80
2020/12/20 07:00:00;;;;;;;4.40;1.60;;;9.20;99.90;;;;;;5002289;28;20394;-79
2020/12/20 07:02:46;;;;;;;2.97;1.98;;;9.50;99.90;;;;;;5003781;28;20446;-79
2020/12/20 07:05:38;;;;;;;2.13;1.60;;;9.20;99.90;;;;;;4995263;28;20406;-80
2020/12/20 07:08:12;;;;;;;2.25;1.60;;;9.10;99.90;;;;;;4999779;28;20398;-79
2020/12/20 07:10:45;;;;;;;3.40;1.77;;;9.20;99.90;;;;;;5002918;28;20496;-80
2020/12/20 07:13:13;;;;;;;2.20;1.65;;;9.10;99.90;;;;;;5005841;28;20407;-79
2020/12/20 07:15:50;;;;;;;3.20;1.60;;;9.50;99.90;;;;;;4999035;28;20385;-78
2020/12/20 07:18:38;;;;;;;1.60;1.40;;;9.30;99.90;;;;;;4999488;28;20403;-79
2020/12/20 07:21:03;;;;;;;1.42;1.30;;;9.20;99.90;;;;;;5005350;28;20393;-79
2020/12/20 07:23:29;;;;;;;3.55;1.52;;;10.30;99.90;;;;;;4993560;28;20873;-78
2020/12/20 07:25:56;;;;;;;2.60;1.67;;;8.90;99.90;;;;;;5002159;28;20913;-79
2020/12/20 07:28:22;;;;;;;1.43;1.30;;;9.50;99.90;;;;;;5001941;28;20711;-79
2020/12/20 07:30:48;;;;;;;1.85;1.40;;;10.00;99.90;;;;;;5000018;28;20428;-79
2020/12/20 07:33:16;;;;;;;2.03;1.73;;;10.60;99.90;;;;;;4993951;28;20463;-79
2020/12/20 07:35:46;;;;;;;1.70;1.60;;;9.10;99.90;;;;;;5002992;28;20487;-80
2020/12/20 07:38:12;;;;;;;2.78;1.70;;;11.00;99.90;;;;;;5000268;28;20389;-80
2020/12/20 07:40:39;;;;;;;4.40;1.60;;;9.00;99.90;;;;;;4995442;28;20489;-80
2020/12/20 07:43:05;;;;;;;2.00;1.80;;;9.60;99.90;;;;;;5007462;28;20385;-79
2020/12/20 07:45:30;;;;;;;2.57;2.10;;;10.80;99.90;;;;;;4995684;28;20385;-79
2020/12/20 07:47:56;;;;;;;2.70;2.00;;;9.30;99.90;;;;;;5002160;28;20465;-81
2020/12/20 07:50:26;;;;;;;2.20;2.00;;;9.20;99.90;;;;;;5002296;28;20547;-79
2020/12/20 07:52:52;;;;;;;3.70;2.30;;;10.10;99.90;;;;;;4996486;28;20410;-81
2020/12/20 07:55:18;;;;;;;2.08;1.88;;;10.30;99.90;;;;;;4994415;28;20850;-80
2020/12/20 07:57:48;;;;;;;2.60;2.20;;;9.00;99.90;;;;;;5003151;28;20448;-80
2020/12/20 08:00:16;;;;;;;1.80;1.70;;;10.20;99.90;;;;;;5001981;28;20388;-81
2020/12/20 08:02:41;;;;;;;2.40;2.10;;;10.30;99.90;;;;;;4994979;28;20406;-80
2020/12/20 08:05:11;;;;;;;2.50;2.00;;;9.30;99.90;;;;;;5007137;28;20861;-80
2020/12/20 08:07:38;;;;;;;2.88;2.03;;;9.00;99.90;;;;;;4995683;28;20424;-79
2020/12/20 08:10:05;;;;;;;4.28;1.80;;;9.00;99.90;;;;;;5000611;28;20489;-79
2020/12/20 08:12:32;;;;;;;2.53;1.70;;;10.80;99.90;;;;;;5003245;28;20405;-79
2020/12/20 08:15:16;;;;;;;2.03;1.83;;;9.30;99.90;;;;;;4994104;28;20482;-80
2020/12/20 08:17:42;;;;;;;2.53;1.63;;;9.70;99.90;;;;;;5002517;28;21012;-79
2020/12/20 08:20:07;;;;;;;2.47;2.00;;;10.00;99.90;;;;;;5004389;28;20424;-79
2020/12/20 08:22:34;;;;;;;2.53;1.80;;;9.80;99.90;;;;;;4998429;28;20875;-79
2020/12/20 08:25:07;;;;;;;2.50;2.30;;;9.50;99.90;;;;;;5010156;28;20381;-79
2020/12/20 08:27:33;;;;;;;2.60;2.28;;;10.00;99.90;;;;;;4998710;28;20393;-79
2020/12/20 08:30:02;;;;;;;2.72;1.67;;;9.30;99.90;;;;;;5004648;28;20421;-80
2020/12/20 08:32:41;;;;;;;2.85;1.65;;;9.40;99.90;;;;;;5006097;28;20385;-79
2020/12/20 08:35:14;;;;;;;2.20;1.95;;;9.40;99.90;;;;;;4996746;28;20717;-79
2020/12/20 08:37:40;;;;;;;2.22;1.90;;;9.30;99.90;;;;;;5007771;28;20493;-79
2020/12/20 08:40:16;;;;;;;2.72;2.03;;;10.00;99.90;;;;;;5004104;28;20455;-80
2020/12/20 08:42:43;;;;;;;2.15;1.95;;;10.20;99.90;;;;;;4998175;28;21060;-79
2020/12/20 08:45:17;;;;;;;2.33;2.13;;;9.50;99.90;;;;;;5010070;28;20444;-79
2020/12/20 08:47:43;;;;;;;2.42;2.10;;;9.60;99.90;;;;;;5000301;28;20377;-79
2020/12/20 08:50:10;;;;;;;2.72;2.35;;;9.70;99.90;;;;;;5003298;28;20418;-80
2020/12/20 08:52:36;;;;;;;2.97;2.67;;;9.90;99.90;;;;;;5007237;28;20385;-79
2020/12/20 08:55:04;;;;;;;2.72;2.53;;;9.70;99.90;;;;;;4997011;28;20398;-80
2020/12/20 08:57:32;;;;;;;3.35;2.90;;;10.10;99.90;;;;;;5007488;28;20863;-79
2020/12/20 09:00:10;;;;;;;5.10;3.00;;;9.50;99.90;;;;;;5002426;28;20400;-79
2020/12/20 09:02:35;;;;;;;2.67;2.47;;;9.40;99.90;;;;;;4998135;28;20387;-79
2020/12/20 09:05:10;;;;;;;3.13;2.83;;;9.40;99.90;;;;;;5009446;28;20714;-79
2020/12/20 09:07:47;;;;;;;3.90;3.00;;;9.50;99.90;;;;;;4998420;28;20454;-79
2020/12/20 09:10:18;;;;;;;3.80;3.05;;;9.70;99.90;;;;;;5002037;28;20418;-79
2020/12/20 09:12:59;;;;;;;3.28;2.80;;;9.50;99.90;;;;;;5007502;28;20393;-79
2020/12/20 09:15:35;;;;;;;3.30;3.00;;;9.70;99.90;;;;;;4996389;28;20423;-78
2020/12/20 09:18:18;;;;;;;3.83;3.10;;;9.70;99.90;;;;;;5003490;28;20743;-79
2020/12/20 09:20:45;;;;;;;3.30;2.70;;;9.70;99.90;;;;;;5007340;28;20401;-79
2020/12/20 09:23:22;;;;;;;2.85;2.53;;;10.10;99.90;;;;;;4994893;28;20381;-79
2020/12/20 09:25:49;;;;;;;4.00;2.58;;;9.90;99.90;;;;;;4992881;28;20400;-78
2020/12/20 09:28:25;;;;;;;3.25;2.40;;;10.20;99.90;;;;;;4998804;28;20454;-78
2020/12/20 09:30:52;;;;;;;3.03;2.70;;;10.80;99.90;;;;;;4997834;28;20904;-78
2020/12/20 09:33:24;;;;;;;3.60;2.58;;;10.50;99.90;;;;;;4998701;28;20465;-77
2020/12/20 09:36:00;;;;;;;3.95;3.08;;;10.20;99.90;;;;;;4994724;28;20436;-78
2020/12/20 09:38:36;;;;;;;5.97;2.92;;;10.30;99.90;;;;;;5000420;28;20913;-77
2020/12/20 09:41:05;;;;;;;2.75;2.50;;;10.20;99.90;;;;;;5000500;28;20398;-79
2020/12/20 09:43:30;;;;;;;2.47;2.28;;;11.10;99.90;;;;;;5002635;28;20402;-78
2020/12/20 09:45:57;;;;;;;1.90;1.80;;;10.90;99.90;;;;;;5000781;28;20398;-76
2020/12/20 09:48:23;;;;;;;2.38;1.92;;;10.90;99.90;;;;;;5002722;28;20481;-76
2020/12/20 09:50:49;;;;;;;2.25;2.05;;;11.40;99.90;;;;;;4999727;28;20758;-74
2020/12/20 09:53:15;;;;;;;2.95;2.20;;;11.50;99.90;;;;;;5001667;28;20734;-75
2020/12/20 09:55:43;;;;;;;3.80;2.58;;;11.00;99.90;;;;;;5001108;28;20780;-76
2020/12/20 09:58:10;;;;;;;3.90;1.70;;;11.50;99.90;;;;;;5001035;28;20420;-76
2020/12/20 10:00:36;;;;;;;1.13;0.80;;;11.50;99.90;;;;;;4999426;28;20802;-75
2020/12/20 10:03:02;;;;;;;2.20;1.00;;;11.80;99.90;;;;;;4992799;28;20414;-74
2020/12/20 10:05:28;;;;;;;0.87;0.70;;;12.10;99.90;;;;;;4991681;28;20414;-76
2020/12/20 10:07:53;;;;;;;0.80;0.60;;;11.70;99.90;;;;;;4992182;28;20469;-75
2020/12/20 10:10:19;;;;;;;1.47;0.50;;;12.60;99.90;;;;;;4974771;28;20414;-75
2020/12/20 10:12:45;;;;;;;0.80;0.67;;;12.20;99.90;;;;;;4991427;28;20395;-74
2020/12/20 10:15:10;;;;;;;1.90;0.60;;;12.00;99.90;;;;;;4992279;28;20397;-75
2020/12/20 10:17:36;;;;;;;1.70;0.90;;;12.10;99.90;;;;;;4991245;28;20465;-75
2020/12/20 10:20:03;;;;;;;1.30;0.90;;;12.10;99.90;;;;;;4990898;28;20466;-75
2020/12/20 10:22:28;;;;;;;1.00;0.70;;;12.20;99.90;;;;;;4991199;28;20760;-78
2020/12/20 10:24:54;;;;;;;0.70;0.50;;;12.00;99.90;;;;;;4992139;28;20386;-75
2020/12/20 10:27:20;;;;;;;1.17;0.60;;;11.90;99.90;;;;;;4997398;28;20388;-75
2020/12/20 10:29:46;;;;;;;0.43;0.30;;;11.90;99.90;;;;;;4991155;28;20422;-76
2020/12/20 10:32:12;;;;;;;0.70;0.40;;;12.30;99.90;;;;;;5009356;28;20451;-76
2020/12/20 10:34:37;;;;;;;0.45;0.40;;;12.00;99.90;;;;;;5010550;28;20392;-76
2020/12/20 10:37:03;;;;;;;1.10;0.60;;;11.80;99.90;;;;;;5011856;28;20495;-78
2020/12/20 10:39:29;;;;;;;0.90;0.50;;;12.10;99.90;;;;;;5010748;28;20516;-75
2020/12/20 10:41:55;;;;;;;0.70;0.50;;;11.90;99.90;;;;;;5011338;28;20389;-81
2020/12/20 10:44:22;;;;;;;0.70;0.60;;;12.00;99.90;;;;;;5011584;28;20486;-77
2020/12/20 10:46:50;;;;;;;0.77;0.63;;;12.00;99.90;;;;;;5004011;28;20969;-76
2020/12/20 10:49:16;;;;;;;0.95;0.65;;;12.20;99.90;;;;;;4994786;28;20429;-77
2020/12/20 10:51:42;;;;;;;0.60;0.50;;;11.90;99.90;;;;;;4989083;28;20395;-77
2020/12/20 10:54:08;;;;;;;0.90;0.43;;;11.80;99.90;;;;;;4990806;28;20386;-74
2020/12/20 10:56:33;;;;;;;0.60;0.40;;;11.70;99.90;;;;;;4995075;28;20381;-75
2020/12/20 10:58:59;;;;;;;0.50;0.50;;;12.30;99.90;;;;;;4995525;28;20388;-75
2020/12/20 11:01:25;;;;;;;1.50;0.60;;;12.10;99.90;;;;;;5000097;28;20412;-75
2020/12/20 11:03:51;;;;;;;0.52;0.40;;;12.30;99.90;;;;;;4999619;28;20399;-74
2020/12/20 11:06:18;;;;;;;0.70;0.40;;;12.00;99.90;;;;;;5011136;28;20388;-74
2020/12/20 11:08:45;;;;;;;0.50;0.40;;;12.20;99.90;;;;;;5009767;28;20381;-75
2020/12/20 11:11:11;;;;;;;0.50;0.40;;;12.10;99.90;;;;;;5005161;28;20408;-75
2020/12/20 11:13:40;;;;;;;0.50;0.40;;;12.40;99.90;;;;;;4991634;28;20461;-74
2020/12/20 11:16:17;;;;;;;1.70;0.50;;;12.10;99.90;;;;;;5000665;28;20755;-74
2020/12/20 11:18:45;;;;;;;1.10;0.50;;;12.20;99.90;;;;;;4999014;28;20459;-75
2020/12/20 11:21:12;;;;;;;0.60;0.50;;;12.70;99.90;;;;;;5000784;28;20405;-74
2020/12/20 11:23:39;;;;;;;0.80;0.50;;;11.90;99.90;;;;;;4999279;28;20432;-74
2020/12/20 11:26:20;;;;;;;0.70;0.60;;;11.80;99.90;;;;;;5001036;28;20377;-75
2020/12/20 11:28:51;;;;;;;1.10;0.70;;;12.20;99.90;;;;;;4998891;28;20443;-74
2020/12/20 11:31:21;;;;;;;0.88;0.50;;;12.10;99.90;;;;;;5001265;28;20420;-74
2020/12/20 11:33:48;;;;;;;0.60;0.45;;;11.80;99.90;;;;;;4999795;28;20432;-74
2020/12/20 11:36:16;;;;;;;0.95;0.60;;;12.10;99.90;;;;;;5001037;28;20909;-73
2020/12/20 11:38:42;;;;;;;0.70;0.47;;;12.20;99.90;;;;;;4997395;28;20877;-71
2020/12/20 11:41:08;;;;;;;0.57;0.40;;;11.80;99.90;;;;;;4996676;28;20409;-74
2020/12/20 11:43:33;;;;;;;1.70;0.65;;;11.50;99.90;;;;;;4990587;28;20481;-75
2020/12/20 11:45:59;;;;;;;0.50;0.50;;;11.80;99.90;;;;;;4989946;28;20391;-75
2020/12/20 11:48:25;;;;;;;0.80;0.50;;;12.10;99.90;;;;;;4997695;28;20894;-74
2020/12/20 11:50:51;;;;;;;1.40;0.52;;;11.90;99.90;;;;;;4999421;28;20428;-73
2020/12/20 11:53:16;;;;;;;1.10;0.60;;;11.80;99.90;;;;;;5001789;28;20373;-73
2020/12/20 11:55:42;;;;;;;0.98;0.50;;;12.10;99.90;;;;;;5003490;28;20432;-74
2020/12/20 11:58:12;;;;;;;1.02;0.50;;;11.60;99.90;;;;;;5004193;28;20376;-74
2020/12/20 12:00:44;;;;;;;1.20;0.60;;;11.80;99.90;;;;;;5004184;28;20394;-74
2020/12/20 12:03:12;;;;;;;0.50;0.40;;;11.80;99.90;;;;;;5003203;28;20390;-73
2020/12/20 12:05:42;;;;;;;1.05;0.50;;;11.70;99.90;;;;;;5003581;28;20488;-75
2020/12/20 12:08:09;;;;;;;0.88;0.40;;;11.70;99.90;;;;;;5002835;28;20385;-74
2020/12/20 12:10:39;;;;;;;0.60;0.43;;;11.60;99.90;;;;;;4999928;28;20938;-77
2020/12/20 12:13:05;;;;;;;0.80;0.52;;;11.60;99.90;;;;;;5004459;28;20394;-74
2020/12/20 12:15:31;;;;;;;0.60;0.60;;;11.70;99.90;;;;;;4999859;28;20393;-76
2020/12/20 12:17:57;;;;;;;0.70;0.45;;;11.70;99.90;;;;;;5002817;28;20473;-73
2020/12/20 12:20:23;;;;;;;2.40;0.50;;;11.80;99.90;;;;;;5003889;28;20480;-73
2020/12/20 12:22:49;;;;;;;0.40;0.40;;;11.60;99.90;;;;;;5003186;28;20464;-75
2020/12/20 12:25:15;;;;;;;0.70;0.50;;;11.60;99.90;;;;;;5005694;28;20494;-76
2020/12/20 12:27:41;;;;;;;1.40;0.60;;;11.30;99.90;;;;;;4999431;28;20397;-77
2020/12/20 12:30:07;;;;;;;0.50;0.33;;;11.30;99.90;;;;;;5000045;28;20413;-76
2020/12/20 12:32:33;;;;;;;1.23;0.60;;;12.10;99.90;;;;;;4999988;28;20423;-78
2020/12/20 12:34:59;;;;;;;0.70;0.50;;;11.60;99.90;;;;;;5004756;28;20375;-76
2020/12/20 12:37:25;;;;;;;0.70;0.45;;;11.30;99.90;;;;;;5004612;28;20393;-76
2020/12/20 12:39:51;;;;;;;0.68;0.50;;;11.50;99.90;;;;;;5000550;28;20419;-76
2020/12/20 12:42:16;;;;;;;0.80;0.60;;;11.30;99.90;;;;;;5002417;28;20932;-76
2020/12/20 12:44:42;;;;;;;0.80;0.50;;;11.20;99.90;;;;;;5000903;28;20397;-77
2020/12/20 12:47:09;;;;;;;0.40;0.30;;;11.40;99.90;;;;;;5005588;28;20441;-75
2020/12/20 12:49:35;;;;;;;0.57;0.40;;;11.20;99.90;;;;;;5002981;28;20417;-78
2020/12/20 12:52:01;;;;;;;1.50;0.50;;;11.60;99.90;;;;;;5001396;28;20386;-78
2020/12/20 12:54:26;;;;;;;0.70;0.50;;;11.40;99.90;;;;;;5000795;28;20402;-76
2020/12/20 12:56:52;;;;;;;0.60;0.40;;;11.60;99.90;;;;;;5002115;28;20393;-76